Time;durP1;ratioP1;P1;durP2;ratioP2;P2;SDS_P1;SDS_P2;PMS_P1;PMS_P2;Temp;Humidity;BMP_temperature;BMP_pressure;BME280_temperature;BME280_humidity;BME280_pressure;Samples;Min_cycle;Max_cycle;Signal;HPM_P1;HPM_P2
2023/05/12 00:03:53;;;;;;;74.63;33.08;;;;;;;14.46;100.00;100440.28;8319128;28;20053;-60
2023/05/12 00:07:53;;;;;;;74.28;33.95;;;;;;;14.49;100.00;100434.50;8317918;28;20033;-60
2023/05/12 00:11:54;;;;;;;83.15;33.80;;;;;;;14.46;100.00;100443.00;8318761;28;20037;-60
2023/05/12 00:15:57;;;;;;;84.78;34.78;;;;;;;14.48;100.00;100437.38;8317089;28;20125;-60
2023/05/12 00:19:57;;;;;;;89.82;36.53;;;;;;;14.47;100.00;100431.09;8317420;28;20482;-59
2023/05/12 00:23:58;;;;;;;98.72;36.80;;;;;;;14.51;100.00;100432.47;8305007;28;20187;-60
2023/05/12 00:27:59;;;;;;;102.38;38.33;;;;;;;14.50;100.00;100433.50;8318578;28;20044;-60
2023/05/12 00:31:59;;;;;;;101.60;39.88;;;;;;;14.48;100.00;100421.06;8320714;28;20125;-60
2023/05/12 00:36:02;;;;;;;107.50;39.67;;;;;;;14.41;100.00;100417.31;8321661;28;20041;-60
2023/05/12 00:40:03;;;;;;;100.75;38.70;;;;;;;14.41;100.00;100426.34;8321461;28;20050;-61
2023/05/12 00:44:04;;;;;;;108.88;37.35;;;;;;;14.40;100.00;100419.19;8319181;28;20044;-61
2023/05/12 00:48:05;;;;;;;106.20;38.13;;;;;;;14.37;100.00;100419.53;8322076;28;20037;-61
2023/05/12 00:52:06;;;;;;;97.60;37.03;;;;;;;14.44;100.00;100420.56;8322946;28;20128;-60
2023/05/12 00:56:07;;;;;;;102.45;37.17;;;;;;;14.41;100.00;100418.16;8321111;28;20067;-60
2023/05/12 01:00:09;;;;;;;99.35;37.45;;;;;;;14.44;100.00;100414.25;8321962;28;20073;-60
2023/05/12 01:04:11;;;;;;;104.68;37.47;;;;;;;14.45;100.00;100411.38;8322828;28;20317;-60
2023/05/12 01:08:13;;;;;;;105.85;38.13;;;;;;;14.48;100.00;100410.16;8327761;28;20041;-60
2023/05/12 01:12:15;;;;;;;99.88;36.92;;;;;;;14.43;100.00;100410.72;8327151;28;20041;-60
2023/05/12 01:16:21;;;;;;;101.35;37.38;;;;;;;14.39;100.00;100406.59;8327317;28;20492;-61
2023/05/12 01:20:25;;;;;;;99.93;36.28;;;;;;;14.41;100.00;100404.56;8328450;28;20048;-60
2023/05/12 01:24:29;;;;;;;89.93;34.00;;;;;;;14.45;100.00;100395.03;8298137;28;20033;-60
2023/05/12 01:28:30;;;;;;;94.20;34.67;;;;;;;14.42;100.00;100400.81;8324180;28;20034;-60
2023/05/12 01:32:31;;;;;;;88.45;34.83;;;;;;;14.45;100.00;100399.66;8293315;28;20048;-60
2023/05/12 01:36:32;;;;;;;92.05;34.33;;;;;;;14.41;100.00;100392.81;8294330;28;20558;-60
2023/05/12 01:40:33;;;;;;;95.35;37.28;;;;;;;14.42;100.00;100383.66;8295025;28;20417;-60
2023/05/12 01:44:33;;;;;;;92.97;34.15;;;;;;;14.40;100.00;100378.41;8294139;28;20045;-60
2023/05/12 01:48:34;;;;;;;94.32;35.45;;;;;;;14.37;100.00;100378.72;8295301;28;20136;-60
2023/05/12 01:52:34;;;;;;;78.07;32.08;;;;;;;14.39;100.00;100373.13;8319991;28;20060;-60
2023/05/12 01:56:35;;;;;;;77.88;33.53;;;;;;;14.43;100.00;100372.63;8327031;28;20037;-60
2023/05/12 02:00:36;;;;;;;71.68;32.45;;;;;;;14.42;100.00;100370.06;8327006;28;20044;-58
2023/05/12 02:04:38;;;;;;;72.70;31.35;;;;;;;14.43;100.00;100356.31;8326732;28;20136;-58
2023/05/12 02:08:39;;;;;;;71.40;31.17;;;;;;;14.42;100.00;100346.41;8326839;28;20037;-58
2023/05/12 02:12:40;;;;;;;64.60;28.20;;;;;;;14.41;100.00;100338.44;8326709;28;20041;-58
2023/05/12 02:16:41;;;;;;;73.38;30.05;;;;;;;14.41;100.00;100339.28;8325353;28;20042;-58
2023/05/12 02:20:41;;;;;;;67.15;28.05;;;;;;;14.37;100.00;100327.06;8326466;28;20046;-58
2023/05/12 02:24:43;;;;;;;63.80;28.17;;;;;;;14.35;100.00;100339.09;8323866;28;20037;-58
2023/05/12 02:28:43;;;;;;;63.65;26.42;;;;;;;14.32;100.00;100334.88;8321007;28;20120;-58
2023/05/12 02:32:44;;;;;;;68.78;28.83;;;;;;;14.32;100.00;100334.88;8292618;28;20038;-58
2023/05/12 02:36:46;;;;;;;60.30;25.80;;;;;;;14.39;100.00;100346.75;8291725;28;20081;-58
2023/05/12 02:40:46;;;;;;;54.83;26.27;;;;;;;14.46;100.00;100347.81;8293127;28;20524;-60
2023/05/12 02:44:48;;;;;;;60.58;25.58;;;;;;;14.49;100.00;100352.88;8291008;28;20046;-59
2023/05/12 02:48:48;;;;;;;61.03;26.88;;;;;;;14.58;100.00;100345.59;8293249;28;20061;-58
2023/05/12 02:52:49;;;;;;;56.97;24.95;;;;;;;14.52;100.00;100352.53;8312734;28;20133;-58
2023/05/12 02:56:50;;;;;;;61.13;26.27;;;;;;;14.49;100.00;100352.88;8323744;28;20037;-59
2023/05/12 03:00:50;;;;;;;57.63;25.90;;;;;;;14.51;100.00;100353.56;8324357;28;20048;-59
2023/05/12 03:04:51;;;;;;;47.58;23.70;;;;;;;14.55;100.00;100351.38;8323884;28;20043;-59
2023/05/12 03:08:54;;;;;;;57.75;24.48;;;;;;;14.52;100.00;100347.09;8324399;28;20049;-59
2023/05/12 03:12:55;;;;;;;51.63;22.88;;;;;;;14.54;100.00;100350.50;8324069;28;20530;-61
2023/05/12 03:16:55;;;;;;;49.13;22.75;;;;;;;14.47;100.00;100349.50;8323087;28;20404;-61
2023/05/12 03:20:56;;;;;;;47.67;23.40;;;;;;;14.49;100.00;100347.44;8323653;28;20091;-60
2023/05/12 03:24:58;;;;;;;49.90;23.45;;;;;;;14.56;100.00;100343.03;8323227;28;20049;-61
2023/05/12 03:28:58;;;;;;;50.15;21.50;;;;;;;14.55;100.00;100341.31;8323353;28;20072;-61
2023/05/12 03:32:59;;;;;;;38.45;19.15;;;;;;;14.56;100.00;100343.03;8324375;28;20096;-60
2023/05/12 03:37:00;;;;;;;36.75;16.02;;;;;;;14.52;100.00;100347.09;8323362;28;20045;-59
2023/05/12 03:41:03;;;;;;;32.97;15.82;;;;;;;14.56;100.00;100334.88;8323352;28;20037;-58
2023/05/12 03:45:05;;;;;;;27.23;13.32;;;;;;;14.49;100.00;100344.72;8322230;28;20439;-58
2023/05/12 03:49:07;;;;;;;27.35;13.85;;;;;;;14.46;100.00;100342.38;8323776;28;20068;-58
2023/05/12 03:53:07;;;;;;;24.45;12.27;;;;;;;14.45;100.00;100346.09;8323922;28;20046;-58
2023/05/12 03:57:08;;;;;;;26.38;12.15;;;;;;;14.49;100.00;100342.00;8323788;28;20510;-58
2023/05/12 04:01:09;;;;;;;21.33;11.45;;;;;;;14.51;100.00;100339.09;8323322;28;20459;-58
2023/05/12 04:05:09;;;;;;;24.00;11.90;;;;;;;14.47;100.00;100346.78;8314298;28;20463;-58
2023/05/12 04:09:10;;;;;;;21.50;11.32;;;;;;;14.47;100.00;100349.50;8321146;28;20505;-58
2023/05/12 04:13:11;;;;;;;23.17;10.95;;;;;;;14.48;100.00;100351.19;8320763;28;20049;-58
2023/05/12 04:17:11;;;;;;;21.27;9.95;;;;;;;14.44;100.00;100355.28;8312260;28;20092;-58
2023/05/12 04:21:12;;;;;;;20.38;10.60;;;;;;;14.45;100.00;100361.56;8318458;28;20045;-58
2023/05/12 04:25:12;;;;;;;18.40;10.45;;;;;;;14.44;100.00;100355.28;8317034;28;20570;-58
2023/05/12 04:29:14;;;;;;;18.83;10.90;;;;;;;14.42;100.00;100357.31;8297759;28;20058;-58
2023/05/12 04:33:15;;;;;;;19.75;9.90;;;;;;;14.37;100.00;100354.25;8320597;28;20120;-58
2023/05/12 04:37:16;;;;;;;19.27;10.63;;;;;;;14.39;100.00;100360.34;8320524;28;20053;-58
2023/05/12 04:41:17;;;;;;;17.13;9.27;;;;;;;14.40;100.00;100364.81;8327703;28;20033;-58
2023/05/12 04:45:18;;;;;;;14.30;8.38;;;;;;;14.39;100.00;100367.69;8325682;28;20156;-58
2023/05/12 04:49:18;;;;;;;11.98;7.65;;;;;;;14.42;100.00;100372.78;8314498;28;20103;-58
2023/05/12 04:53:21;;;;;;;13.10;7.75;;;;;;;14.50;100.00;100375.50;8310889;28;20087;-58
2023/05/12 04:57:22;;;;;;;14.27;8.38;;;;;;;14.56;100.00;100381.13;8320743;28;20041;-58
2023/05/12 05:01:22;;;;;;;10.90;7.82;;;;;;;14.57;100.00;100377.38;8301682;28;20061;-59
2023/05/12 05:05:23;;;;;;;13.55;8.65;;;;;;;14.55;100.00;100384.84;8317397;28;20080;-59
2023/05/12 05:09:24;;;;;;;15.52;9.30;;;;;;;14.46;100.00;100395.91;8325305;28;20037;-59
2023/05/12 05:13:25;;;;;;;15.90;9.45;;;;;;;14.45;100.00;100392.31;8324496;28;20484;-61
2023/05/12 05:17:26;;;;;;;17.65;9.68;;;;;;;14.49;100.00;100407.28;8324641;28;20042;-60
2023/05/12 05:21:27;;;;;;;17.08;9.27;;;;;;;14.48;100.00;100404.72;8325207;28;20393;-61
2023/05/12 05:25:28;;;;;;;10.18;7.43;;;;;;;14.45;100.00;100411.38;8321050;28;20030;-60
2023/05/12 05:29:29;;;;;;;8.60;6.35;;;;;;;14.43;100.00;100413.44;8318677;28;20057;-61
2023/05/12 05:33:31;;;;;;;8.52;5.53;;;;;;;14.46;100.00;100410.38;8335266;28;20037;-61
2023/05/12 05:37:31;;;;;;;6.20;5.57;;;;;;;14.61;100.00;100408.66;8321015;28;20033;-58
2023/05/12 05:41:32;;;;;;;7.88;4.65;;;;;;;14.52;100.00;100417.81;8315454;28;20060;-59
2023/05/12 05:45:33;;;;;;;7.80;4.18;;;;;;;14.55;100.00;100428.38;8314236;28;20076;-59
2023/05/12 05:49:33;;;;;;;7.07;4.10;;;;;;;14.60;100.00;100431.44;8322675;28;20080;-59
2023/05/12 05:53:35;;;;;;;4.93;3.90;;;;;;;14.60;100.00;100433.31;8321741;28;20045;-59
2023/05/12 05:57:36;;;;;;;9.02;3.70;;;;;;;14.62;100.00;100434.88;8323571;28;20128;-58
2023/05/12 06:01:37;;;;;;;4.18;3.70;;;;;;;14.61;100.00;100438.59;8324014;28;20048;-59
2023/05/12 06:05:38;;;;;;;3.78;3.45;;;;;;;14.64;100.00;100438.25;8321158;28;20508;-59
2023/05/12 06:09:38;;;;;;;4.93;4.45;;;;;;;14.75;100.00;100446.09;8323425;28;20087;-59
2023/05/12 06:13:39;;;;;;;5.03;4.53;;;;;;;14.70;100.00;100459.34;8321684;28;20407;-59
2023/05/12 06:17:40;;;;;;;7.82;4.80;;;;;;;14.75;100.00;100465.16;8322750;28;20034;-59
2023/05/12 06:21:40;;;;;;;6.03;5.40;;;;;;;14.73;100.00;100469.91;8312374;28;20448;-58
2023/05/12 06:25:41;;;;;;;6.50;5.35;;;;;;;14.73;100.00;100464.44;8291003;28;20115;-59
2023/05/12 06:29:41;;;;;;;9.15;6.20;;;;;;;14.77;100.00;100473.16;8300408;28;20119;-59
2023/05/12 06:33:41;;;;;;;11.23;6.68;;;;;;;14.85;100.00;100470.44;8336491;28;20046;-59
2023/05/12 06:37:48;;;;;;;9.75;6.80;;;;;;;14.90;100.00;100468.91;8346906;28;20055;-59
2023/05/12 06:41:48;;;;;;;8.30;6.20;;;;;;;14.96;100.00;100481.84;8344109;28;20040;-59
2023/05/12 06:45:55;;;;;;;9.50;5.70;;;;;;;14.99;100.00;100484.22;8357395;28;20037;-60
2023/05/12 06:49:56;;;;;;;8.57;5.20;;;;;;;15.08;100.00;100491.38;8357831;28;20087;-61
2023/05/12 06:53:56;;;;;;;6.53;5.32;;;;;;;15.03;100.00;100492.88;8326323;28;20487;-60
2023/05/12 06:57:56;;;;;;;5.15;4.55;;;;;;;15.08;100.00;100485.06;8320723;28;20038;-60
2023/05/12 07:01:57;;;;;;;6.95;4.90;;;;;;;15.13;100.00;100490.88;8311731;28;20611;-60
2023/05/12 07:05:58;;;;;;;6.30;4.40;;;;;;;15.15;100.00;100496.97;8323482;28;20037;-60
2023/05/12 07:09:58;;;;;;;6.20;4.45;;;;;;;15.22;100.00;100503.47;8324432;28;20114;-61
2023/05/12 07:13:59;;;;;;;6.22;3.83;;;;;;;15.25;100.00;100500.41;8338572;28;20124;-60
2023/05/12 07:17:59;;;;;;;4.70;4.22;;;;;;;15.28;100.00;100514.50;8348017;28;20045;-60
2023/05/12 07:22:00;;;;;;;6.63;4.13;;;;;;;15.29;100.00;100513.50;8358667;28;20194;-60
2023/05/12 07:26:02;;;;;;;4.15;3.70;;;;;;;15.24;100.00;100507.72;8323667;28;20037;-61
2023/05/12 07:30:05;;;;;;;4.78;3.30;;;;;;;15.18;100.00;100522.00;8331646;28;20049;-60
2023/05/12 07:34:06;;;;;;;5.60;2.42;;;;;;;15.30;100.00;100512.47;8323325;28;20048;-60
2023/05/12 07:38:08;;;;;;;3.90;2.10;;;;;;;15.36;100.00;100517.25;8324435;28;20037;-60
2023/05/12 07:42:09;;;;;;;3.72;1.83;;;;;;;15.64;100.00;100525.91;8320181;28;20063;-60
2023/05/12 07:46:10;;;;;;;3.33;1.92;;;;;;;15.84;100.00;100524.53;8320125;28;20125;-61
2023/05/12 07:50:10;;;;;;;2.72;1.88;;;;;;;15.92;100.00;100529.94;8320571;28;20033;-61
2023/05/12 07:54:12;;;;;;;2.88;2.03;;;;;;;15.88;100.00;100527.72;8322376;28;20522;-60
2023/05/12 07:58:12;;;;;;;3.45;1.88;;;;;;;16.06;100.00;100536.56;8323278;28;20041;-61
2023/05/12 08:02:13;;;;;;;4.63;2.50;;;;;;;16.38;100.00;100525.53;8333254;28;20064;-61
2023/05/12 08:06:13;;;;;;;1.75;1.63;;;;;;;16.48;100.00;100534.38;8321123;28;20056;-61
2023/05/12 08:10:13;;;;;;;2.92;1.98;;;;;;;16.67;100.00;100539.38;8320871;28;20048;-61
2023/05/12 08:14:14;;;;;;;3.92;2.00;;;;;;;16.63;100.00;100546.25;8321373;28;20089;-61
2023/05/12 08:18:15;;;;;;;2.72;1.80;;;;;;;16.70;100.00;100547.22;8327741;28;20364;-61
2023/05/12 08:22:15;;;;;;;5.18;2.25;;;;;;;16.66;99.04;100540.44;8326019;28;20049;-61
2023/05/12 08:26:16;;;;;;;2.97;2.30;;;;;;;17.07;96.89;100555.53;8327115;28;20087;-61
2023/05/12 08:30:16;;;;;;;3.83;2.58;;;;;;;17.23;93.43;100549.97;8326579;28;20057;-61
2023/05/12 08:34:17;;;;;;;5.68;2.80;;;;;;;17.23;90.88;100544.50;8326479;28;20037;-61
2023/05/12 08:38:18;;;;;;;4.10;3.20;;;;;;;17.45;90.62;100560.06;8331106;28;20057;-61
2023/05/12 08:42:42;;;;;;;2.50;2.15;;;;;;;17.77;90.87;100559.75;8324251;28;20041;-61
2023/05/12 08:46:42;;;;;;;;;;;;;;;17.83;89.38;100572.69;8336778;28;20040;-61
2023/05/12 08:50:45;;;;;;;3.80;2.65;;;;;;;17.78;87.86;100566.91;8348695;28;19967;-61
2023/05/12 08:54:45;;;;;;;2.33;2.13;;;;;;;17.76;86.41;100574.47;8326392;28;20099;-61
2023/05/12 08:58:47;;;;;;;4.63;2.38;;;;;;;17.51;87.88;100578.47;8323959;28;20050;-61
2023/05/12 09:02:49;;;;;;;3.45;2.67;;;;;;;17.47;89.34;100574.38;8320609;28;20045;-61
2023/05/12 09:06:50;;;;;;;5.55;3.03;;;;;;;17.80;87.16;100581.25;8345777;28;20063;-61
2023/05/12 09:10:55;;;;;;;6.03;2.97;;;;;;;18.17;85.91;100573.00;8322105;28;20041;-61
2023/05/12 09:15:03;;;;;;;5.60;2.30;;;;;;;18.24;86.28;100579.41;8297150;28;20516;-61
2023/05/12 09:19:05;;;;;;;3.95;1.90;;;;;;;18.34;84.94;100585.50;8337332;28;20132;-61
2023/05/12 09:23:21;;;;;;;2.40;1.73;;;;;;;18.69;81.27;100592.94;8336050;28;20076;-61
2023/05/12 09:27:26;;;;;;;1.90;1.63;;;;;;;18.64;80.41;100597.31;8324330;28;20076;-61
2023/05/12 09:31:27;;;;;;;2.03;1.83;;;;;;;19.19;79.80;100592.09;8308875;28;20034;-61
2023/05/12 09:35:27;;;;;;;2.60;1.67;;;;;;;18.91;79.13;100597.44;8324804;28;20040;-60
2023/05/12 09:39:28;;;;;;;4.30;1.30;;;;;;;18.74;76.71;100604.19;8325116;28;20413;-61
2023/05/12 09:43:29;;;;;;;1.95;1.45;;;;;;;18.75;79.02;100589.44;8325174;28;20511;-61
2023/05/12 09:47:34;;;;;;;2.40;1.80;;;;;;;18.71;77.59;100590.88;8324816;28;20120;-60
2023/05/12 09:51:34;;;;;;;2.78;1.25;;;;;;;19.52;74.79;100599.63;8325266;28;20052;-61
2023/05/12 09:55:35;;;;;;;3.35;1.40;;;;;;;18.97;76.35;100607.63;8324809;28;20041;-61
2023/05/12 09:59:37;;;;;;;1.33;1.10;;;;;;;19.02;76.68;100602.44;8329066;28;20045;-60
2023/05/12 10:03:41;;;;;;;2.88;1.27;;;;;;;18.89;76.42;100607.75;8334828;28;20064;-61
2023/05/12 10:07:45;;;;;;;2.40;1.20;;;;;;;18.99;76.14;100618.41;8357966;28;20037;-60
2023/05/12 10:11:46;;;;;;;1.90;1.13;;;;;;;19.41;75.74;100619.38;8291749;28;20292;-61
2023/05/12 10:15:47;;;;;;;1.60;1.42;;;;;;;19.70;75.56;100612.88;8291076;28;20416;-60
2023/05/12 10:19:48;;;;;;;3.83;1.70;;;;;;;20.61;74.76;100610.00;8296499;28;20041;-60
2023/05/12 10:23:51;;;;;;;4.57;1.60;;;;;;;20.38;72.79;100591.06;8322079;28;20045;-62
2023/05/12 10:27:54;;;;;;;3.95;1.95;;;;;;;20.40;74.38;100610.09;8324166;28;20354;-61
2023/05/12 10:31:57;;;;;;;2.92;1.60;;;;;;;20.22;68.92;100604.28;8322997;28;20120;-61
2023/05/12 10:35:57;;;;;;;1.52;1.42;;;;;;;20.13;70.39;100606.28;8320140;28;20582;-60
2023/05/12 10:39:59;;;;;;;3.58;2.00;;;;;;;20.17;71.76;100601.25;8325170;28;20467;-61
2023/05/12 10:44:00;;;;;;;2.90;2.00;;;;;;;19.85;72.19;100604.59;8321003;28;20033;-60
2023/05/12 10:48:05;;;;;;;2.72;1.70;;;;;;;19.88;71.99;100601.44;8319491;28;20045;-61
2023/05/12 10:52:06;;;;;;;1.75;1.60;;;;;;;20.43;70.42;100606.97;8320484;28;20322;-61
2023/05/12 10:56:07;;;;;;;2.65;2.20;;;;;;;20.20;69.99;100604.47;8329671;28;20123;-61
2023/05/12 11:00:12;;;;;;;2.85;1.95;;;;;;;20.84;69.29;100607.78;8319550;28;20049;-60
2023/05/12 11:04:15;;;;;;;4.28;2.30;;;;;;;23.71;63.07;100607.53;8319311;28;20091;-61
2023/05/12 11:08:15;;;;;;;2.25;1.60;;;;;;;24.83;58.15;100615.44;8318934;28;20065;-61
2023/05/12 11:12:16;;;;;;;4.22;2.20;;;;;;;23.70;58.34;100614.13;8320007;28;20041;-61
2023/05/12 11:16:16;;;;;;;2.60;1.83;;;;;;;23.07;59.00;100604.91;8318935;28;20041;-61
2023/05/12 11:20:25;;;;;;;3.10;2.00;;;;;;;22.25;62.81;100625.88;8319574;28;20107;-61
2023/05/12 11:24:25;;;;;;;2.63;2.08;;;;;;;21.06;64.38;100618.50;8286576;28;20409;-61
2023/05/12 11:28:26;;;;;;;2.65;2.35;;;;;;;20.91;64.91;100615.03;8271677;28;20124;-60
2023/05/12 11:32:28;;;;;;;3.28;2.22;;;;;;;20.73;65.38;100616.59;8318321;28;20158;-60
2023/05/12 11:36:36;;;;;;;4.10;2.35;;;;;;;21.27;64.01;100625.75;8319262;28;20496;-58
2023/05/12 11:40:39;;;;;;;3.75;2.22;;;;;;;20.71;65.85;100625.06;8318934;28;20034;-57
2023/05/12 11:44:48;;;;;;;6.18;2.35;;;;;;;20.60;66.48;100627.53;8319126;28;20040;-57
2023/05/12 11:48:54;;;;;;;5.00;2.20;;;;;;;20.40;67.67;100626.59;8318431;28;20053;-57
2023/05/12 11:52:56;;;;;;;3.55;2.20;;;;;;;20.58;66.55;100624.13;8338971;28;20060;-58
2023/05/12 11:56:57;;;;;;;5.07;2.20;;;;;;;20.54;66.67;100633.84;8295095;28;20269;-58
2023/05/12 12:01:09;;;;;;;3.60;2.28;;;;;;;20.76;65.87;100628.06;8285235;28;20394;-59
2023/05/12 12:05:18;;;;;;;5.15;2.15;;;;;;;20.96;65.22;100628.19;8286838;28;20060;-60
2023/05/12 12:09:29;;;;;;;6.90;2.70;;;;;;;21.07;61.76;100630.31;8297489;28;20049;-58
2023/05/12 12:13:29;;;;;;;5.07;2.30;;;;;;;21.22;65.30;100640.13;8285369;28;20042;-57
2023/05/12 12:17:30;;;;;;;4.22;1.75;;;;;;;21.15;62.09;100635.66;8285889;28;20113;-58
2023/05/12 12:21:31;;;;;;;4.35;2.45;;;;;;;21.17;63.93;100639.06;8283508;28;20326;-57
2023/05/12 12:25:31;;;;;;;3.90;2.58;;;;;;;21.66;63.77;100642.38;8281103;28;20122;-57
2023/05/12 12:29:31;;;;;;;6.18;2.97;;;;;;;21.61;62.45;100639.38;8280475;28;20121;-58
2023/05/12 12:33:32;;;;;;;4.32;2.80;;;;;;;21.37;66.31;100647.38;8294576;28;20030;-56
2023/05/12 12:37:32;;;;;;;3.78;2.63;;;;;;;21.13;66.79;100644.13;8292866;28;20037;-56
2023/05/12 12:41:33;;;;;;;4.22;3.05;;;;;;;20.84;65.26;100635.28;8293748;28;20045;-56
2023/05/12 12:45:33;;;;;;;3.05;2.50;;;;;;;20.89;67.90;100649.28;8283850;28;20080;-56
2023/05/12 12:49:33;;;;;;;3.25;2.58;;;;;;;21.02;66.41;100652.94;8286304;28;20045;-56
2023/05/12 12:53:34;;;;;;;4.03;2.50;;;;;;;21.14;63.80;100636.72;8287242;28;20111;-56
2023/05/12 12:57:35;;;;;;;3.53;2.65;;;;;;;21.04;65.11;100636.25;8287571;28;20053;-56
2023/05/12 13:01:35;;;;;;;3.28;2.40;;;;;;;21.20;66.73;100636.72;8288832;28;20233;-56
2023/05/12 13:05:36;;;;;;;4.55;2.65;;;;;;;21.26;65.15;100638.66;8293226;28;20038;-56
2023/05/12 13:09:37;;;;;;;2.70;2.20;;;;;;;21.38;65.89;100645.25;8292253;28;20155;-58
2023/05/12 13:13:37;;;;;;;5.40;1.95;;;;;;;21.18;63.77;100643.50;8292910;28;20038;-57
2023/05/12 13:17:38;;;;;;;4.90;2.33;;;;;;;20.92;63.58;100640.63;8293498;28;20042;-58
2023/05/12 13:21:38;;;;;;;4.45;2.38;;;;;;;21.03;63.89;100651.06;8292631;28;20113;-58
2023/05/12 13:25:38;;;;;;;4.85;2.50;;;;;;;21.26;65.75;100640.59;8296558;28;20040;-57
2023/05/12 13:29:40;;;;;;;3.90;2.97;;;;;;;21.46;61.50;100635.97;8295558;28;20029;-57
2023/05/12 13:33:41;;;;;;;5.63;2.30;;;;;;;21.82;62.08;100633.75;8289028;28;20058;-57
2023/05/12 13:37:41;;;;;;;4.75;2.47;;;;;;;21.99;62.34;100637.75;8288560;28;20038;-57
2023/05/12 13:41:42;;;;;;;2.60;2.40;;;;;;;22.15;60.67;100631.84;8290847;28;20044;-59
2023/05/12 13:45:42;;;;;;;3.35;2.30;;;;;;;22.42;60.10;100625.22;8290147;28;20049;-59
2023/05/12 13:49:43;;;;;;;5.15;2.60;;;;;;;22.40;60.58;100635.63;8291017;28;20072;-59
2023/05/12 13:53:44;;;;;;;4.75;2.70;;;;;;;22.20;60.47;100629.28;8291899;28;20493;-59
2023/05/12 13:57:48;;;;;;;5.38;3.22;;;;;;;22.21;61.32;100625.50;8290745;28;20556;-59
2023/05/12 14:01:48;;;;;;;4.95;2.20;;;;;;;22.26;59.97;100628.44;8290709;28;20528;-58
2023/05/12 14:05:49;;;;;;;3.75;2.20;;;;;;;22.31;59.69;100631.41;8290490;28;20286;-58
2023/05/12 14:09:49;;;;;;;2.97;2.15;;;;;;;22.19;61.41;100630.34;8295294;28;20044;-57
2023/05/12 14:13:50;;;;;;;5.13;2.40;;;;;;;22.17;61.38;100634.41;8298567;28;20041;-56
2023/05/12 14:17:51;;;;;;;4.05;2.70;;;;;;;22.09;60.11;100638.22;8290614;28;20041;-56
2023/05/12 14:21:51;;;;;;;2.53;2.33;;;;;;;22.05;60.25;100636.91;8290107;28;21445;-57
2023/05/12 14:25:52;;;;;;;3.17;2.10;;;;;;;21.96;55.93;100654.69;8287426;28;20123;-56
2023/05/12 14:29:52;;;;;;;3.15;2.10;;;;;;;21.87;57.77;100647.75;8288694;28;20034;-56
2023/05/12 14:33:54;;;;;;;2.92;2.63;;;;;;;21.93;58.58;100651.53;8288232;28;20096;-57
2023/05/12 14:37:55;;;;;;;3.45;2.13;;;;;;;22.01;57.67;100652.19;8287888;28;20488;-57
2023/05/12 14:41:55;;;;;;;5.28;2.80;;;;;;;21.89;59.31;100651.09;8287275;28;20064;-59
2023/05/12 14:45:56;;;;;;;3.80;2.33;;;;;;;21.86;58.78;100648.78;8287475;28;20033;-58
2023/05/12 14:49:56;;;;;;;4.05;2.33;;;;;;;21.76;59.36;100653.84;8288370;28;20794;-58
2023/05/12 14:53:57;;;;;;;4.50;2.63;;;;;;;21.66;60.68;100653.38;8315444;28;20038;-59
2023/05/12 14:57:57;;;;;;;2.90;2.40;;;;;;;21.93;60.21;100655.16;8319325;28;20111;-60
2023/05/12 15:01:58;;;;;;;2.85;1.90;;;;;;;21.68;60.37;100661.44;8319770;28;20701;-61
2023/05/12 15:05:58;;;;;;;3.03;2.20;;;;;;;21.65;60.22;100665.44;8320293;28;20033;-61
2023/05/12 15:09:59;;;;;;;3.80;2.08;;;;;;;21.77;61.73;100662.97;8304864;28;20050;-61
2023/05/12 15:14:00;;;;;;;2.72;2.20;;;;;;;21.81;60.30;100667.84;8315150;28;20038;-60
2023/05/12 15:18:00;;;;;;;2.50;2.28;;;;;;;21.69;59.44;100674.97;8317163;28;20425;-60
2023/05/12 15:22:01;;;;;;;4.65;2.20;;;;;;;21.64;58.99;100660.13;8316492;28;20037;-60
2023/05/12 15:26:06;;;;;;;2.33;2.13;;;;;;;21.60;59.40;100676.22;8317821;28;20064;-60
2023/05/12 15:30:07;;;;;;;7.63;2.42;;;;;;;21.49;59.02;100663.06;8342119;28;20049;-60
2023/05/12 15:34:08;;;;;;;7.03;3.08;;;;;;;21.55;59.63;100667.75;8318301;28;20042;-59
2023/05/12 15:38:09;;;;;;;6.40;2.35;;;;;;;21.45;60.23;100671.94;8315630;28;20061;-59
2023/05/12 15:42:09;;;;;;;3.90;2.40;;;;;;;21.30;61.36;100669.34;8318110;28;20038;-59
2023/05/12 15:46:10;;;;;;;4.72;2.35;;;;;;;21.17;61.87;100663.81;8311149;28;20045;-59
2023/05/12 15:50:11;;;;;;;3.67;2.38;;;;;;;21.08;61.95;100676.03;8312953;28;20311;-59
2023/05/12 15:54:11;;;;;;;6.05;2.53;;;;;;;20.99;62.93;100677.25;8311750;28;20496;-59
2023/05/12 15:58:12;;;;;;;3.22;2.58;;;;;;;20.96;61.97;100673.03;8316199;28;20046;-59
2023/05/12 16:02:12;;;;;;;3.50;2.33;;;;;;;20.87;62.59;100673.34;8315175;28;20393;-59
2023/05/12 16:06:12;;;;;;;3.75;2.20;;;;;;;20.88;64.01;100675.03;8313444;28;20505;-59
2023/05/12 16:10:13;;;;;;;2.53;2.25;;;;;;;20.88;62.95;100666.78;8313389;28;20045;-59
2023/05/12 16:14:14;;;;;;;4.13;2.47;;;;;;;20.93;62.19;100664.31;8313113;28;20128;-59
2023/05/12 16:18:14;;;;;;;4.82;2.45;;;;;;;20.91;64.16;100655.41;8316050;28;20175;-59
2023/05/12 16:22:14;;;;;;;4.13;3.03;;;;;;;20.89;67.59;100663.03;8317154;28;20045;-59
2023/05/12 16:26:15;;;;;;;4.75;2.70;;;;;;;20.92;68.69;100668.13;8314817;28;20041;-59
2023/05/12 16:30:16;;;;;;;5.00;2.30;;;;;;;20.89;69.25;100660.28;8317384;28;20058;-59
2023/05/12 16:34:18;;;;;;;3.75;2.50;;;;;;;20.72;69.76;100665.25;8317103;28;20052;-59
2023/05/12 16:38:18;;;;;;;5.13;2.30;;;;;;;20.77;68.18;100665.47;8322249;28;20148;-58
2023/05/12 16:42:19;;;;;;;4.95;3.08;;;;;;;20.76;66.83;100662.91;8322817;28;20514;-59
2023/05/12 16:46:19;;;;;;;4.85;2.80;;;;;;;20.77;67.87;100667.38;8322321;28;20037;-59
2023/05/12 16:50:20;;;;;;;3.83;2.85;;;;;;;20.91;67.18;100663.66;8323576;28;20044;-60
2023/05/12 16:54:21;;;;;;;3.38;2.70;;;;;;;20.99;63.00;100663.53;8322015;28;20124;-60
2023/05/12 16:58:21;;;;;;;4.18;2.53;;;;;;;21.00;63.34;100666.06;8323208;28;20111;-60
2023/05/12 17:02:22;;;;;;;5.07;2.70;;;;;;;21.10;65.01;100662.91;8329620;28;20129;-60
2023/05/12 17:06:22;;;;;;;7.68;3.17;;;;;;;21.01;70.18;100675.13;8323756;28;20525;-61
2023/05/12 17:10:23;;;;;;;5.47;2.50;;;;;;;20.95;68.47;100678.72;8322148;28;20056;-60
2023/05/12 17:14:23;;;;;;;3.17;2.65;;;;;;;20.81;72.67;100679.66;8322610;28;20033;-60
2023/05/12 17:18:24;;;;;;;5.20;2.97;;;;;;;20.82;72.67;100686.84;8322508;28;20042;-60
2023/05/12 17:22:25;;;;;;;3.33;3.03;;;;;;;20.74;75.32;100700.78;8323494;28;20515;-60
2023/05/12 17:26:26;;;;;;;4.50;3.10;;;;;;;20.63;77.68;100713.16;8321247;28;20076;-60
2023/05/12 17:30:27;;;;;;;4.30;2.60;;;;;;;20.59;72.01;100700.03;8321668;28;20041;-60
2023/05/12 17:34:27;;;;;;;8.68;3.38;;;;;;;20.16;78.67;100706.66;8329287;28;20072;-60
2023/05/12 17:38:28;;;;;;;5.63;2.65;;;;;;;20.00;72.85;100709.66;8348151;28;20037;-60
2023/05/12 17:42:30;;;;;;;6.13;2.88;;;;;;;19.85;73.12;100708.88;8321782;28;20124;-60
2023/05/12 17:46:30;;;;;;;2.63;2.42;;;;;;;19.88;74.45;100723.03;8321149;28;20034;-61
2023/05/12 17:50:31;;;;;;;6.88;2.47;;;;;;;19.69;75.05;100725.56;8320422;28;20508;-61
2023/05/12 17:54:31;;;;;;;4.35;2.72;;;;;;;19.70;71.84;100736.34;8317035;28;20261;-62
2023/05/12 17:58:32;;;;;;;4.15;2.63;;;;;;;19.63;69.86;100746.38;8322589;28;20483;-61
2023/05/12 18:02:32;;;;;;;3.22;2.72;;;;;;;19.21;71.74;100747.09;8322905;28;20041;-61
2023/05/12 18:06:33;;;;;;;6.82;2.92;;;;;;;18.95;72.67;100733.03;8322248;28;20041;-61
2023/05/12 18:10:35;;;;;;;3.22;2.92;;;;;;;18.87;73.93;100730.38;8323499;28;20570;-60
2023/05/12 18:14:35;;;;;;;4.03;3.55;;;;;;;18.77;75.07;100729.81;8323688;28;20466;-60
2023/05/12 18:18:37;;;;;;;4.68;3.20;;;;;;;18.74;71.17;100719.25;8320146;28;20038;-60
2023/05/12 18:22:37;;;;;;;6.40;3.53;;;;;;;18.77;71.34;100723.47;8321780;28;20037;-60
2023/05/12 18:26:38;;;;;;;6.10;4.03;;;;;;;18.70;72.33;100736.25;8320994;28;20042;-60
2023/05/12 18:30:38;;;;;;;5.93;3.60;;;;;;;18.58;73.39;100735.84;8322526;28;20030;-61